WetterOnline ( https://www.wetteronline.de )

Wetter aktuell Hohenpeißenberg

Aktuelles Wetter: Hohenpeißenberg (986m)

6-stündlich | Neueste Meldungen
Ortszeit Temperatur Wetter
Fr, 20.09. 2:00 5.2° C wolkenlos
Do, 19.09. 20:00 7.8° C wolkenlos
Do, 19.09. 14:00 10.7° C wolkenlos
Do, 19.09. 8:00 5.3° C wolkig
Do, 19.09. 2:00 6.9° C wolkenlos
Mi, 18.09. 20:00 8.9° C wolkenlos
Mi, 18.09. 14:00 11.1° C leicht bewölkt
Mi, 18.09. 8:00 6.7° C bewölkt
Ortszeit Temperatur Wetter
Fr, 20.09. 7:30 4.7° C leicht bewölkt
Fr, 20.09. 7:20 4.7° C leicht bewölkt
Fr, 20.09. 7:10 4.7° C fast wolkenlos
Fr, 20.09. 7:00 4.7° C fast wolkenlos
Fr, 20.09. 6:50 4.7° C fast wolkenlos
Fr, 20.09. 6:40 4.8° C wolkenlos
Fr, 20.09. 6:30 4.6° C fast wolkenlos
Fr, 20.09. 6:00 4.5° C leicht bewölkt
Fr, 20.09. 5:30 5.1° C leicht bewölkt
Fr, 20.09. 5:00 4.5° C leicht bewölkt
Fr, 20.09. 4:30 5.1° C wolkig
Ortszeit Relative Feuchte Sichtweite
Fr, 20.09. 2:00 72% 50 km
Do, 19.09. 20:00 66% 50 km
Do, 19.09. 14:00 56% 40 km
Do, 19.09. 8:00 77% 40 km
Do, 19.09. 2:00 69% 55 km
Mi, 18.09. 20:00 65% 55 km
Mi, 18.09. 14:00 68% 29 km
Mi, 18.09. 8:00 88% 30 km
Ortszeit Relative Feuchte Sichtweite
Fr, 20.09. 7:30 80% 50 km
Fr, 20.09. 7:20 80% -
Fr, 20.09. 7:10 78% -
Fr, 20.09. 7:00 77% 45 km
Fr, 20.09. 6:50 77% -
Fr, 20.09. 6:40 76% -
Fr, 20.09. 6:30 77% 55 km
Fr, 20.09. 6:00 80% 45 km
Fr, 20.09. 5:30 74% 55 km
Fr, 20.09. 5:00 76% 45 km
Fr, 20.09. 4:30 72% 50 km
Ortszeit Niederschlagsmenge Niederschlagsart
Fr, 20.09. 2:00 0.0 l/m2 in 6 Std. -
Do, 19.09. 20:00 0.0 l/m2 in 12 Std. -
Do, 19.09. 14:00 0.0 l/m2 in 6 Std. -
Do, 19.09. 8:00 0.0 l/m2 in 12 Std. -
Do, 19.09. 2:00 0.0 l/m2 in 6 Std. -
Mi, 18.09. 20:00 0.0 l/m2 in 12 Std. -
Mi, 18.09. 14:00 0.0 l/m2 in 6 Std. -
Mi, 18.09. 8:00 0.0 l/m2 in 12 Std. -
Ortszeit Niederschlagsmenge Niederschlagsart
Fr, 20.09. 7:30 0.0 l/m2 in 1 Std. -
Fr, 20.09. 7:20 keine Meldung -
Fr, 20.09. 7:10 keine Meldung -
Fr, 20.09. 7:00 0.0 l/m2 in 1 Std. -
Fr, 20.09. 6:50 keine Meldung -
Fr, 20.09. 6:40 keine Meldung -
Fr, 20.09. 6:30 0.0 l/m2 in 1 Std. -
Fr, 20.09. 6:00 0.0 l/m2 in 1 Std. -
Fr, 20.09. 5:30 0.0 l/m2 in 1 Std. -
Fr, 20.09. 5:00 0.0 l/m2 in 1 Std. -
Fr, 20.09. 4:30 0.0 l/m2 in 1 Std. -
Ortszeit Stärke Spitze Richtung
km/h Bft. km/h Grad Sektor
Fr, 20.09. 2:00 14 3 32 70° O
Do, 19.09. 20:00 18 3 29 40° NO
Do, 19.09. 14:00 13 3 26 60° NO
Do, 19.09. 8:00 17 3 24 50° NO
Do, 19.09. 2:00 11 2 29 60° NO
Mi, 18.09. 20:00 22 4 29 30° NO
Mi, 18.09. 14:00 13 3 28 60° NO
Mi, 18.09. 8:00 18 3 25 40° NO
Ortszeit Stärke Spitze Richtung
km/h Bft. km/h Grad Sektor
Fr, 20.09. 7:30 9 2 17 110° O
Fr, 20.09. 7:20 9 2 - 110° O
Fr, 20.09. 7:10 7 2 - 90° O
Fr, 20.09. 7:00 11 2 18 70° O
Fr, 20.09. 6:50 11 2 - 70° O
Fr, 20.09. 6:40 11 2 - 80° O
Fr, 20.09. 6:30 11 2 18 70° O
Fr, 20.09. 6:00 9 2 19 70° O
Fr, 20.09. 5:30 11 2 19 80° O
Fr, 20.09. 5:00 11 2 24 70° O
Fr, 20.09. 4:30 11 2 20 80° O
Ortszeit Untergrenze Bedeckung Gattung
total tief tief mittel hoch
Fr, 20.09. 2:00 - 0/8 0/8 - - -
Do, 19.09. 20:00 - 0/8 0/8 - - -
Do, 19.09. 14:00 - 0/8 0/8 - - -
Do, 19.09. 8:00 7500 m 8/8 0/8 - - -
Do, 19.09. 2:00 - 0/8 0/8 - - -
Mi, 18.09. 20:00 - 0/8 0/8 - - -
Mi, 18.09. 14:00 660 m 3/8 3/8 - - -
Mi, 18.09. 8:00 960 m 7/8 7/8 - - -
Ortszeit Bedeckungsgrad in Achtel und Wolkenuntergrenze
Fr, 20.09. 7:30 4(9000m) 5(9000m) 5(10500m)
Fr, 20.09. 7:20 4(9000m) 5(9000m) 5(10500m)
Fr, 20.09. 7:10 2(9000m) 2(10500m)
Fr, 20.09. 7:00 1(10500m)
Fr, 20.09. 6:50 1(10500m)
Fr, 20.09. 6:40 keine Wolken
Fr, 20.09. 6:30 1(9000m)
Fr, 20.09. 6:00 5(9000m)
Fr, 20.09. 5:30 3(9000m) 6(10500m)
Fr, 20.09. 5:00 4(9000m) 4(10500m)
Fr, 20.09. 4:30 7(9000m) 8(10500m)
Ortszeit Stationsdruck (hPa) Tendenz (hPa in 3 Std.)
Fr, 20.09. 2:00 913 - 0,7
Do, 19.09. 20:00 913 + 0,4
Do, 19.09. 14:00 913 0,0
Do, 19.09. 8:00 911 + 0,6
Do, 19.09. 2:00 911 + 0,1
Mi, 18.09. 20:00 910 + 0,5
Mi, 18.09. 14:00 910 - 0,2
Mi, 18.09. 8:00 910 + 0,2
Ortszeit Stationsdruck (hPa) Tendenz (hPa in 3 Std.)
Fr, 20.09. 7:30 912 0,0
Fr, 20.09. 7:20 912 keine Meldung
Fr, 20.09. 7:10 912 keine Meldung
Fr, 20.09. 7:00 912 - 0,3
Fr, 20.09. 6:50 912 keine Meldung
Fr, 20.09. 6:40 912 keine Meldung
Fr, 20.09. 6:30 912 - 0,6
Fr, 20.09. 6:00 912 - 0,8
Fr, 20.09. 5:30 912 - 1,0
Fr, 20.09. 5:00 912 - 1,3
Fr, 20.09. 4:30 912 - 1,3
Ortszeit Schneehöhe (cm)
Fr, 20.09. 2:00 -
Do, 19.09. 20:00 -
Do, 19.09. 14:00 -
Do, 19.09. 8:00 -
Do, 19.09. 2:00 -
Mi, 18.09. 20:00 -
Mi, 18.09. 14:00 -
Mi, 18.09. 8:00 -
Ortszeit Schneehöhe (cm)
Fr, 20.09. 7:30 -
Fr, 20.09. 7:20 -
Fr, 20.09. 7:10 -
Fr, 20.09. 7:00 -
Fr, 20.09. 6:50 -
Fr, 20.09. 6:40 -
Fr, 20.09. 6:30 -
Fr, 20.09. 6:00 -
Fr, 20.09. 5:30 -
Fr, 20.09. 5:00 -
Fr, 20.09. 4:30 -
Link zu dieser Seite / Seite empfehlen

Das Wetter in ...